Time;durP1;ratioP1;P1;durP2;ratioP2;P2;SDS_P1;SDS_P2;PMS_P1;PMS_P2;Temp;Humidity;BMP_temperature;BMP_pressure;BME280_temperature;BME280_humidity;BME280_pressure;Samples;Min_cycle;Max_cycle;Signal;HPM_P1;HPM_P2
2021/10/27 00:00:07;;;;;;;4.00;3.57;;;;;;;;;;4934851;29;20203;-88
2021/10/27 00:02:34;;;;;;;4.63;3.63;;;;;;;;;;4935050;29;20210;-87
2021/10/27 00:05:03;;;;;;;7.13;3.93;;;;;;;;;;4935216;29;20290;-88
2021/10/27 00:07:31;;;;;;;4.17;3.70;;;;;;;;;;4935085;29;20203;-88
2021/10/27 00:09:58;;;;;;;3.43;3.17;;;;;;;;;;4934755;29;20213;-87
2021/10/27 00:12:25;;;;;;;3.50;3.20;;;;;;;;;;4934999;29;20265;-87
2021/10/27 00:14:56;;;;;;;3.73;3.40;;;;;;;;;;4934834;29;20202;-88
2021/10/27 00:17:23;;;;;;;3.47;3.13;;;;;;;;;;4934851;29;20321;-87
2021/10/27 00:19:51;;;;;;;5.93;3.30;;;;;;;;;;4934762;29;20198;-88
2021/10/27 00:22:18;;;;;;;2.50;2.30;;;;;;;;;;4934678;29;20266;-87
2021/10/27 00:24:45;;;;;;;3.50;2.80;;;;;;;;;;4934758;29;20297;-87
2021/10/27 00:27:12;;;;;;;4.43;3.03;;;;;;;;;;4934884;29;20203;-87
2021/10/27 00:29:41;;;;;;;3.63;3.33;;;;;;;;;;4934701;29;20690;-87
2021/10/27 00:32:10;;;;;;;3.63;3.17;;;;;;;;;;4934274;29;20246;-87
2021/10/27 00:34:38;;;;;;;3.20;2.87;;;;;;;;;;4934702;29;20261;-87
2021/10/27 00:37:05;;;;;;;4.30;2.50;;;;;;;;;;4934481;29;20343;-88
2021/10/27 00:39:33;;;;;;;3.07;2.77;;;;;;;;;;4936660;29;20206;-88
2021/10/27 00:42:01;;;;;;;3.43;2.60;;;;;;;;;;4937844;29;20203;-87
2021/10/27 00:44:28;;;;;;;2.47;2.27;;;;;;;;;;4937973;29;20213;-87
2021/10/27 00:47:00;;;;;;;4.57;3.00;;;;;;;;;;4937793;29;20202;-87
2021/10/27 00:49:29;;;;;;;3.10;2.77;;;;;;;;;;4938098;29;20213;-87
2021/10/27 00:51:56;;;;;;;3.30;2.77;;;;;;;;;;4937753;29;20226;-88
2021/10/27 00:54:24;;;;;;;2.80;2.60;;;;;;;;;;4938255;29;20301;-88
2021/10/27 00:56:52;;;;;;;5.63;2.90;;;;;;;;;;4937766;29;20198;-87
2021/10/27 00:59:20;;;;;;;2.90;2.60;;;;;;;;;;4937838;29;20202;-88
2021/10/27 01:01:47;;;;;;;5.17;2.90;;;;;;;;;;4937584;29;20209;-88
2021/10/27 01:04:15;;;;;;;3.60;2.93;;;;;;;;;;4937874;29;20228;-87
2021/10/27 01:06:44;;;;;;;3.00;2.80;;;;;;;;;;4937531;29;20688;-87
2021/10/27 01:09:11;;;;;;;2.40;2.20;;;;;;;;;;4938257;29;20207;-87
2021/10/27 01:11:40;;;;;;;3.73;2.67;;;;;;;;;;4937280;29;20237;-87
2021/10/27 01:14:08;;;;;;;2.93;2.30;;;;;;;;;;4937331;29;20250;-86
2021/10/27 01:16:35;;;;;;;3.77;2.80;;;;;;;;;;4937471;29;20210;-87
2021/10/27 01:19:02;;;;;;;4.63;3.03;;;;;;;;;;4937416;29;20238;-87
2021/10/27 01:21:31;;;;;;;4.83;3.47;;;;;;;;;;4937298;29;20254;-87
2021/10/27 01:23:59;;;;;;;3.00;2.80;;;;;;;;;;4937253;29;20260;-87
2021/10/27 01:26:27;;;;;;;3.50;2.60;;;;;;;;;;4937362;29;20277;-87
2021/10/27 01:28:54;;;;;;;2.53;2.23;;;;;;;;;;4937102;29;20202;-87
2021/10/27 01:31:23;;;;;;;3.60;2.67;;;;;;;;;;4936886;29;20242;-87
2021/10/27 01:33:50;;;;;;;3.67;2.50;;;;;;;;;;4937169;29;20238;-87
2021/10/27 01:36:19;;;;;;;2.80;2.27;;;;;;;;;;4937113;29;20202;-87
2021/10/27 01:38:49;;;;;;;3.07;2.80;;;;;;;;;;4937103;29;20229;-88
2021/10/27 01:41:16;;;;;;;3.10;2.80;;;;;;;;;;4937282;29;20199;-88
2021/10/27 01:43:51;;;;;;;2.93;2.73;;;;;;;;;;4936905;29;20203;-88
2021/10/27 01:46:18;;;;;;;3.10;2.80;;;;;;;;;;4937231;29;20584;-88
2021/10/27 01:48:45;;;;;;;4.37;3.20;;;;;;;;;;4937229;29;20376;-88
2021/10/27 01:51:13;;;;;;;3.13;2.80;;;;;;;;;;4936584;29;20226;-87
2021/10/27 01:53:40;;;;;;;3.00;2.80;;;;;;;;;;4936865;29;20207;-87
2021/10/27 01:56:09;;;;;;;4.10;2.73;;;;;;;;;;4936789;29;20199;-87
2021/10/27 01:58:36;;;;;;;3.10;2.67;;;;;;;;;;4936995;29;20623;-87
2021/10/27 02:01:03;;;;;;;4.03;2.70;;;;;;;;;;4936771;29;20202;-87
2021/10/27 02:03:31;;;;;;;2.60;2.40;;;;;;;;;;4936471;29;20202;-87
2021/10/27 02:05:58;;;;;;;3.23;2.93;;;;;;;;;;4936534;29;20202;-87
2021/10/27 02:08:25;;;;;;;4.33;2.70;;;;;;;;;;4936288;29;20212;-88
2021/10/27 02:10:53;;;;;;;4.53;2.90;;;;;;;;;;4936268;29;20317;-87
2021/10/27 02:13:21;;;;;;;3.43;2.73;;;;;;;;;;4936543;29;20241;-87
2021/10/27 02:15:49;;;;;;;3.90;2.90;;;;;;;;;;4936390;29;20257;-87
2021/10/27 02:18:16;;;;;;;3.80;3.10;;;;;;;;;;4936424;29;20273;-87
2021/10/27 02:20:43;;;;;;;3.07;2.87;;;;;;;;;;4936289;29;20198;-88
2021/10/27 02:23:11;;;;;;;3.73;3.33;;;;;;;;;;4936187;29;20199;-87
2021/10/27 02:25:38;;;;;;;10.33;3.30;;;;;;;;;;4936163;29;20195;-86
2021/10/27 02:28:06;;;;;;;3.70;3.40;;;;;;;;;;4935852;29;20238;-87
2021/10/27 02:30:35;;;;;;;3.60;3.30;;;;;;;;;;4935782;29;20806;-87
2021/10/27 02:33:03;;;;;;;3.77;3.23;;;;;;;;;;4936273;29;20281;-87
2021/10/27 02:35:30;;;;;;;7.13;3.57;;;;;;;;;;4935878;29;20199;-87
2021/10/27 02:37:58;;;;;;;4.97;3.00;;;;;;;;;;4936206;29;20199;-87
2021/10/27 02:40:25;;;;;;;4.17;3.10;;;;;;;;;;4935894;29;20795;-87
2021/10/27 02:42:53;;;;;;;4.57;3.53;;;;;;;;;;4935855;29;20703;-87
2021/10/27 02:45:20;;;;;;;3.50;3.20;;;;;;;;;;4935566;29;20203;-88
2021/10/27 02:47:49;;;;;;;4.17;3.27;;;;;;;;;;4935776;29;20289;-88
2021/10/27 02:50:16;;;;;;;3.50;3.20;;;;;;;;;;4935988;29;20211;-88
2021/10/27 02:52:45;;;;;;;6.83;4.10;;;;;;;;;;4935592;29;20290;-87
2021/10/27 02:55:13;;;;;;;4.30;4.00;;;;;;;;;;4935499;29;20672;-87
2021/10/27 02:57:40;;;;;;;4.47;3.50;;;;;;;;;;4935295;29;20298;-87
2021/10/27 03:00:09;;;;;;;5.50;4.47;;;;;;;;;;4935439;29;20210;-87
2021/10/27 03:02:37;;;;;;;3.63;3.33;;;;;;;;;;4935117;29;20234;-88
2021/10/27 03:05:07;;;;;;;8.77;3.57;;;;;;;;;;4934658;29;20207;-87
2021/10/27 03:07:35;;;;;;;3.60;3.30;;;;;;;;;;4935234;29;20618;-87
2021/10/27 03:10:02;;;;;;;4.07;3.50;;;;;;;;;;4937988;29;20205;-87
2021/10/27 03:12:29;;;;;;;5.40;3.30;;;;;;;;;;4954736;28;20316;-87
2021/10/27 03:14:57;;;;;;;4.30;3.43;;;;;;;;;;4954588;28;20206;-87
2021/10/27 03:17:24;;;;;;;4.53;3.97;;;;;;;;;;4954569;28;20237;-87
2021/10/27 03:19:51;;;;;;;4.43;3.53;;;;;;;;;;4954098;28;20209;-88
2021/10/27 03:22:20;;;;;;;7.07;4.70;;;;;;;;;;4954581;29;20198;-87
2021/10/27 03:24:47;;;;;;;3.57;3.27;;;;;;;;;;4953917;29;20252;-88
2021/10/27 03:27:15;;;;;;;3.63;3.33;;;;;;;;;;4954139;29;20209;-88
2021/10/27 03:29:42;;;;;;;2.93;2.70;;;;;;;;;;4953669;29;20260;-87
2021/10/27 03:32:10;;;;;;;3.10;2.67;;;;;;;;;;4953989;29;20237;-87
2021/10/27 03:34:38;;;;;;;3.90;3.50;;;;;;;;;;4954109;29;20272;-87
2021/10/27 03:37:05;;;;;;;4.10;3.70;;;;;;;;;;4953815;29;20201;-87
2021/10/27 03:39:34;;;;;;;3.60;3.00;;;;;;;;;;4954297;29;20205;-87
2021/10/27 03:42:01;;;;;;;3.77;3.07;;;;;;;;;;4954099;29;20220;-87
2021/10/27 03:44:29;;;;;;;3.90;3.60;;;;;;;;;;4951156;29;20576;-87
2021/10/27 03:47:02;;;;;;;5.93;4.03;;;;;;;;;;4953385;29;20237;-87
2021/10/27 03:49:30;;;;;;;3.37;3.17;;;;;;;;;;4953833;29;20254;-87
2021/10/27 03:51:58;;;;;;;3.40;3.10;;;;;;;;;;4953689;29;20370;-88
2021/10/27 03:54:25;;;;;;;3.17;2.93;;;;;;;;;;4953743;29;20208;-87
2021/10/27 03:56:54;;;;;;;3.67;3.17;;;;;;;;;;4953557;29;20280;-86
2021/10/27 03:59:21;;;;;;;5.30;3.50;;;;;;;;;;4953693;29;20563;-86
2021/10/27 04:01:48;;;;;;;3.57;3.27;;;;;;;;;;4953969;29;20261;-87
2021/10/27 04:04:15;;;;;;;5.53;4.00;;;;;;;;;;4954193;29;20625;-86
2021/10/27 04:06:43;;;;;;;4.03;3.47;;;;;;;;;;4953621;29;20221;-88
2021/10/27 04:09:10;;;;;;;3.37;3.10;;;;;;;;;;4953549;29;20330;-87
2021/10/27 04:11:37;;;;;;;4.40;2.77;;;;;;;;;;4953226;29;20233;-89
2021/10/27 04:14:06;;;;;;;5.30;4.70;;;;;;;;;;4957239;28;20212;-89
2021/10/27 04:16:34;;;;;;;8.57;3.70;;;;;;;;;;4958210;29;20241;-89
2021/10/27 04:19:01;;;;;;;4.07;3.30;;;;;;;;;;4957711;29;20202;-87
2021/10/27 04:21:28;;;;;;;3.37;2.83;;;;;;;;;;4956992;29;20206;-87
2021/10/27 04:23:55;;;;;;;8.97;4.00;;;;;;;;;;4956530;29;20202;-86
2021/10/27 04:26:23;;;;;;;3.90;3.47;;;;;;;;;;4957217;29;20233;-87
2021/10/27 04:28:52;;;;;;;5.10;3.57;;;;;;;;;;4956982;29;20264;-88
2021/10/27 04:31:21;;;;;;;3.33;3.10;;;;;;;;;;4957099;28;20243;-88
2021/10/27 04:33:49;;;;;;;4.23;3.27;;;;;;;;;;4957050;29;20248;-88
2021/10/27 04:36:16;;;;;;;6.80;4.77;;;;;;;;;;4957006;29;20257;-87
2021/10/27 04:38:43;;;;;;;7.60;3.93;;;;;;;;;;4957330;29;20393;-86
2021/10/27 04:41:11;;;;;;;7.47;3.93;;;;;;;;;;4956814;29;20197;-85
2021/10/27 04:43:38;;;;;;;10.20;4.83;;;;;;;;;;4956906;29;20257;-88
2021/10/27 04:46:06;;;;;;;5.13;4.60;;;;;;;;;;4957127;29;20238;-87
2021/10/27 04:48:35;;;;;;;5.57;4.00;;;;;;;;;;4957130;29;20335;-87
2021/10/27 04:51:02;;;;;;;3.50;3.20;;;;;;;;;;4957362;29;20597;-87
2021/10/27 04:53:29;;;;;;;6.63;4.03;;;;;;;;;;4957229;29;20256;-87
2021/10/27 04:55:57;;;;;;;4.30;3.90;;;;;;;;;;4950539;29;20203;-87
2021/10/27 04:58:27;;;;;;;3.77;3.40;;;;;;;;;;4938094;29;20194;-86
2021/10/27 05:00:54;;;;;;;2.70;2.50;;;;;;;;;;4938170;29;20202;-87
2021/10/27 05:03:21;;;;;;;3.57;3.23;;;;;;;;;;4937993;29;20638;-87
2021/10/27 05:05:53;;;;;;;3.07;2.87;;;;;;;;;;4937808;29;20206;-87
2021/10/27 05:08:22;;;;;;;3.60;3.30;;;;;;;;;;4938043;29;20191;-87
2021/10/27 05:10:50;;;;;;;4.30;3.90;;;;;;;;;;4937782;29;20672;-87
2021/10/27 05:13:19;;;;;;;3.57;3.13;;;;;;;;;;4937995;29;20230;-87
2021/10/27 05:15:47;;;;;;;3.50;3.20;;;;;;;;;;4937946;29;20568;-87
2021/10/27 05:18:14;;;;;;;6.47;3.77;;;;;;;;;;4937783;29;20207;-87
2021/10/27 05:20:41;;;;;;;3.80;3.50;;;;;;;;;;4937926;29;20273;-87
2021/10/27 05:23:10;;;;;;;4.67;3.40;;;;;;;;;;4937633;29;20206;-87
2021/10/27 05:25:38;;;;;;;5.03;3.23;;;;;;;;;;4936959;29;20676;-87
2021/10/27 05:28:06;;;;;;;6.73;3.87;;;;;;;;;;4937500;29;20209;-87
2021/10/27 05:30:33;;;;;;;5.10;3.70;;;;;;;;;;4937073;29;20238;-87
2021/10/27 05:33:00;;;;;;;3.90;3.03;;;;;;;;;;4937389;29;20285;-86
2021/10/27 05:35:29;;;;;;;4.83;3.40;;;;;;;;;;4937322;29;20285;-87
2021/10/27 05:37:59;;;;;;;3.03;2.83;;;;;;;;;;4937304;29;20203;-87
2021/10/27 05:40:27;;;;;;;5.30;3.20;;;;;;;;;;4937090;29;20207;-87
2021/10/27 05:42:55;;;;;;;3.70;2.67;;;;;;;;;;4937140;29;20290;-87
2021/10/27 05:45:25;;;;;;;2.90;2.70;;;;;;;;;;4937268;29;20206;-87
2021/10/27 05:47:55;;;;;;;4.60;2.67;;;;;;;;;;4937141;29;20202;-87
2021/10/27 05:50:31;;;;;;;3.73;3.20;;;;;;;;;;4937059;29;20293;-87
2021/10/27 05:55:46;;;;;;;5.67;3.40;;;;;;;;;;4937150;29;20190;-87
2021/10/27 05:58:14;;;;;;;5.57;5.07;;;;;;;;;;4937159;29;20206;-86
2021/10/27 06:00:42;;;;;;;9.07;4.00;;;;;;;;;;4936711;29;20198;-86
2021/10/27 06:03:10;;;;;;;12.47;6.47;;;;;;;;;;4936733;29;20783;-86
2021/10/27 06:05:37;;;;;;;8.17;7.37;;;;;;;;;;4936625;29;20684;-87
2021/10/27 06:08:05;;;;;;;7.83;7.00;;;;;;;;;;4936955;29;20257;-87
2021/10/27 06:10:33;;;;;;;5.97;4.97;;;;;;;;;;4936978;29;20285;-88
2021/10/27 06:13:04;;;;;;;6.60;4.37;;;;;;;;;;4936558;29;20667;-88
2021/10/27 06:15:32;;;;;;;3.80;3.40;;;;;;;;;;4937226;29;20277;-87
2021/10/27 06:18:00;;;;;;;4.33;3.00;;;;;;;;;;4936937;29;20686;-88
2021/10/27 06:20:28;;;;;;;4.23;3.83;;;;;;;;;;4936857;29;20599;-87
2021/10/27 06:22:55;;;;;;;6.20;5.30;;;;;;;;;;4936641;29;20195;-87
2021/10/27 06:25:24;;;;;;;9.73;7.47;;;;;;;;;;4936372;29;20209;-87
2021/10/27 06:27:58;;;;;;;7.70;6.00;;;;;;;;;;4936674;29;20202;-87
2021/10/27 06:30:31;;;;;;;12.00;6.90;;;;;;;;;;4936258;29;20245;-87
2021/10/27 06:33:05;;;;;;;8.30;4.80;;;;;;;;;;4936585;29;20215;-87
2021/10/27 06:35:35;;;;;;;6.57;5.00;;;;;;;;;;4935842;29;20194;-86
2021/10/27 06:38:25;;;;;;;6.60;4.70;;;;;;;;;;4935897;29;20194;-86
2021/10/27 06:46:37;;;;;;;5.43;4.27;;;;;;;;;;4935838;29;20244;-87
2021/10/27 06:49:04;;;;;;;7.10;4.20;;;;;;;;;;4936081;29;20193;-87
2021/10/27 06:51:32;;;;;;;4.27;3.87;;;;;;;;;;4936203;29;20566;-88
2021/10/27 06:53:59;;;;;;;7.47;5.33;;;;;;;;;;4936032;29;20230;-87
2021/10/27 06:56:27;;;;;;;7.53;5.90;;;;;;;;;;4936053;29;20263;-87
2021/10/27 06:58:59;;;;;;;8.33;3.60;;;;;;;;;;4935827;29;20289;-88
2021/10/27 07:01:31;;;;;;;4.30;3.70;;;;;;;;;;4935714;29;20640;-87
2021/10/27 07:15:09;;;;;;;4.90;3.93;;;;;;;;;;4935726;29;20190;-87
2021/10/27 07:17:37;;;;;;;8.50;4.90;;;;;;;;;;4935570;29;20699;-87
2021/10/27 07:20:07;;;;;;;11.43;4.03;;;;;;;;;;4935424;29;20202;-87
2021/10/27 07:22:35;;;;;;;4.10;3.70;;;;;;;;;;4935329;29;20195;-86
2021/10/27 07:25:03;;;;;;;6.60;3.77;;;;;;;;;;4935419;29;20195;-87
2021/10/27 07:27:31;;;;;;;4.63;3.67;;;;;;;;;;4935767;29;20210;-88
2021/10/27 07:29:58;;;;;;;7.83;3.30;;;;;;;;;;4935474;29;20589;-88
2021/10/27 07:32:27;;;;;;;4.60;3.80;;;;;;;;;;4935414;29;20242;-87
2021/10/27 07:35:00;;;;;;;6.13;4.10;;;;;;;;;;4935355;29;20207;-87
2021/10/27 07:42:59;;;;;;;6.07;4.73;;;;;;;;;;4935510;29;20193;-87
2021/10/27 07:45:27;;;;;;;5.30;4.07;;;;;;;;;;4935095;29;20205;-87
2021/10/27 07:47:55;;;;;;;4.43;4.00;;;;;;;;;;4937641;29;20210;-87
2021/10/27 07:50:25;;;;;;;3.70;3.40;;;;;;;;;;4941929;29;20639;-87
2021/10/27 07:52:52;;;;;;;3.97;3.57;;;;;;;;;;4941596;29;20226;-87
2021/10/27 07:55:20;;;;;;;3.50;3.20;;;;;;;;;;4941726;29;20237;-87
2021/10/27 07:57:48;;;;;;;4.17;3.70;;;;;;;;;;4941425;29;20206;-87
2021/10/27 08:00:16;;;;;;;4.27;3.70;;;;;;;;;;4941260;29;20253;-87
2021/10/27 08:02:45;;;;;;;11.40;4.67;;;;;;;;;;4941361;29;20285;-87
2021/10/27 08:05:12;;;;;;;4.30;3.90;;;;;;;;;;4941607;29;20649;-87
2021/10/27 08:07:45;;;;;;;7.00;3.73;;;;;;;;;;4941531;29;20233;-87
2021/10/27 08:10:13;;;;;;;8.43;3.37;;;;;;;;;;4941318;29;20197;-88
2021/10/27 08:12:41;;;;;;;13.23;8.23;;;;;;;;;;4941423;29;20297;-87
2021/10/27 08:15:09;;;;;;;6.17;3.97;;;;;;;;;;4941340;29;20679;-87
2021/10/27 08:17:37;;;;;;;7.67;3.77;;;;;;;;;;4941296;29;20672;-87
2021/10/27 08:20:05;;;;;;;6.93;3.80;;;;;;;;;;4941314;29;20750;-87
2021/10/27 08:22:32;;;;;;;5.60;4.80;;;;;;;;;;4941459;29;20210;-87
2021/10/27 08:25:05;;;;;;;6.70;6.10;;;;;;;;;;4941353;29;20643;-87
2021/10/27 08:27:34;;;;;;;6.50;4.87;;;;;;;;;;4941709;29;20253;-87
2021/10/27 08:30:05;;;;;;;12.03;6.90;;;;;;;;;;4940863;29;20254;-87
2021/10/27 08:32:42;;;;;;;4.30;3.90;;;;;;;;;;4941116;29;20226;-87
2021/10/27 08:35:10;;;;;;;4.47;4.07;;;;;;;;;;4941160;29;20191;-87
2021/10/27 08:37:38;;;;;;;5.63;3.67;;;;;;;;;;4941376;29;20580;-87
2021/10/27 08:40:08;;;;;;;4.13;3.83;;;;;;;;;;4941267;29;20206;-86
2021/10/27 08:42:36;;;;;;;6.07;4.90;;;;;;;;;;4941299;29;20285;-87
2021/10/27 08:45:03;;;;;;;5.73;4.50;;;;;;;;;;4941173;29;20199;-87
2021/10/27 08:47:31;;;;;;;4.43;4.03;;;;;;;;;;4941358;29;20253;-87
2021/10/27 08:49:59;;;;;;;3.70;3.40;;;;;;;;;;4941132;29;20210;-87
2021/10/27 08:52:27;;;;;;;5.37;4.20;;;;;;;;;;4941027;29;20631;-87
2021/10/27 08:54:56;;;;;;;7.23;4.10;;;;;;;;;;4941105;29;20282;-87
2021/10/27 08:57:25;;;;;;;6.20;4.50;;;;;;;;;;4940954;29;20206;-87
2021/10/27 08:59:56;;;;;;;7.00;4.13;;;;;;;;;;4938339;29;20258;-87
2021/10/27 09:02:40;;;;;;;7.27;4.87;;;;;;;;;;4938270;29;20223;-87
2021/10/27 09:08:14;;;;;;;8.37;6.03;;;;;;;;;;4935983;29;20684;-88
2021/10/27 09:16:23;;;;;;;9.57;4.73;;;;;;;;;;4937783;29;20687;-87
2021/10/27 09:47:42;;;;;;;9.83;6.23;;;;;;;;;;4920263;29;20265;-87
2021/10/27 10:04:15;;;;;;;6.90;4.63;;;;;;;;;;4937073;29;20614;-86
2021/10/27 10:06:43;;;;;;;7.87;6.90;;;;;;;;;;4936715;29;20186;-87
2021/10/27 10:09:13;;;;;;;6.87;5.20;;;;;;;;;;4936746;29;20258;-87
2021/10/27 10:11:40;;;;;;;8.77;5.60;;;;;;;;;;4936578;29;20202;-86
2021/10/27 10:14:10;;;;;;;6.77;6.17;;;;;;;;;;4936827;29;20610;-86
2021/10/27 10:16:41;;;;;;;6.23;5.73;;;;;;;;;;4936838;29;20656;-87
2021/10/27 10:19:12;;;;;;;5.70;3.93;;;;;;;;;;4936505;29;20191;-87
2021/10/27 10:21:42;;;;;;;5.20;4.13;;;;;;;;;;4936567;29;20217;-86
2021/10/27 10:24:38;;;;;;;4.77;3.80;;;;;;;;;;4936420;29;20191;-87
2021/10/27 10:27:11;;;;;;;6.03;4.33;;;;;;;;;;4936343;29;20198;-87
2021/10/27 10:29:47;;;;;;;6.60;5.13;;;;;;;;;;4936372;29;20198;-87
2021/10/27 10:32:29;;;;;;;5.80;4.83;;;;;;;;;;4936160;29;20191;-86
2021/10/27 10:35:01;;;;;;;20.43;11.53;;;;;;;;;;4936042;29;20226;-86
2021/10/27 10:37:35;;;;;;;24.10;21.30;;;;;;;;;;4936203;29;20204;-87
2021/10/27 10:40:10;;;;;;;10.20;9.20;;;;;;;;;;4935965;29;20195;-86
2021/10/27 10:45:49;;;;;;;8.80;5.37;;;;;;;;;;4935707;29;20594;-87
2021/10/27 11:00:48;;;;;;;4.93;3.73;;;;;;;;;;4936295;29;20275;-88
2021/10/27 11:03:35;;;;;;;7.73;5.00;;;;;;;;;;4935894;29;20288;-87
2021/10/27 11:22:21;;;;;;;6.57;5.97;;;;;;;;;;4896251;29;20224;-88
2021/10/27 11:37:40;;;;;;;8.07;6.53;;;;;;;;;;4935715;29;20190;-87
2021/10/27 11:40:15;;;;;;;6.00;5.50;;;;;;;;;;4936037;29;20572;-88
2021/10/27 11:42:48;;;;;;;7.93;5.93;;;;;;;;;;4935796;29;20205;-88
2021/10/27 11:48:09;;;;;;;12.00;7.83;;;;;;;;;;4935912;29;20229;-88
2021/10/27 11:50:37;;;;;;;7.07;6.40;;;;;;;;;;4935432;29;20281;-88
2021/10/27 11:53:06;;;;;;;5.50;4.93;;;;;;;;;;4935625;29;20241;-88
2021/10/27 11:55:37;;;;;;;14.73;10.37;;;;;;;;;;4935192;29;20216;-88
2021/10/27 11:58:06;;;;;;;7.97;7.10;;;;;;;;;;4935374;29;20687;-88
2021/10/27 12:00:38;;;;;;;15.40;11.43;;;;;;;;;;4935130;29;20679;-88
2021/10/27 12:03:09;;;;;;;9.43;7.33;;;;;;;;;;4935306;29;20250;-88
2021/10/27 12:05:42;;;;;;;13.30;6.30;;;;;;;;;;4935453;29;20223;-88
2021/10/27 12:08:37;;;;;;;8.97;7.50;;;;;;;;;;4935663;29;20727;-88
2021/10/27 12:11:29;;;;;;;9.50;4.80;;;;;;;;;;4935117;29;20281;-88
2021/10/27 12:14:15;;;;;;;9.03;5.70;;;;;;;;;;4935390;29;20241;-88
2021/10/27 12:19:32;;;;;;;5.23;4.50;;;;;;;;;;4935457;29;20183;-88
2021/10/27 12:22:01;;;;;;;6.87;6.17;;;;;;;;;;4935004;29;20202;-88
2021/10/27 12:24:30;;;;;;;18.23;6.90;;;;;;;;;;4935241;29;20205;-88
2021/10/27 12:27:02;;;;;;;11.03;5.53;;;;;;;;;;4935040;29;20212;-88
2021/10/27 12:29:32;;;;;;;8.20;5.27;;;;;;;;;;4935464;29;20620;-88
2021/10/27 12:32:04;;;;;;;6.10;5.07;;;;;;;;;;4934939;29;20242;-88
2021/10/27 12:34:32;;;;;;;9.77;6.60;;;;;;;;;;4935523;29;20230;-87
2021/10/27 12:37:00;;;;;;;4.27;3.97;;;;;;;;;;4938762;29;20237;-88
2021/10/27 12:39:42;;;;;;;4.40;4.00;;;;;;;;;;4938709;29;20199;-87
2021/10/27 12:42:11;;;;;;;8.67;5.33;;;;;;;;;;4938923;29;20191;-88
2021/10/27 12:44:49;;;;;;;11.30;6.50;;;;;;;;;;4938797;29;20622;-88
2021/10/27 12:47:18;;;;;;;5.93;5.33;;;;;;;;;;4938486;29;20250;-88
2021/10/27 12:49:47;;;;;;;8.77;6.40;;;;;;;;;;4938424;29;20280;-88
2021/10/27 12:52:29;;;;;;;8.67;5.77;;;;;;;;;;4938469;29;20262;-89
2021/10/27 12:55:16;;;;;;;6.30;4.73;;;;;;;;;;4938558;29;20226;-89
2021/10/27 12:57:49;;;;;;;6.60;4.97;;;;;;;;;;4938724;29;20230;-88
2021/10/27 13:00:22;;;;;;;6.67;3.63;;;;;;;;;;4938473;29;20655;-89
2021/10/27 13:06:02;;;;;;;9.73;7.50;;;;;;;;;;4931631;29;20198;-91
2021/10/27 13:08:52;;;;;;;7.53;5.20;;;;;;;;;;4938168;29;20209;-89
2021/10/27 13:11:36;;;;;;;6.27;4.20;;;;;;;;;;4938451;29;20571;-89
2021/10/27 13:14:12;;;;;;;4.97;4.57;;;;;;;;;;4937990;29;20711;-88
2021/10/27 13:17:19;;;;;;;10.93;6.27;;;;;;;;;;4938035;29;20187;-89
2021/10/27 13:20:02;;;;;;;10.23;6.67;;;;;;;;;;4938222;29;20222;-89
2021/10/27 13:30:48;;;;;;;5.27;4.47;;;;;;;;;;4937897;29;20789;-89
2021/10/27 13:33:18;;;;;;;6.27;4.97;;;;;;;;;;4937822;29;20200;-89
2021/10/27 13:35:46;;;;;;;8.40;6.83;;;;;;;;;;4937545;29;20217;-89
2021/10/27 13:38:14;;;;;;;9.83;6.60;;;;;;;;;;4937674;29;20198;-89
2021/10/27 13:40:43;;;;;;;7.37;5.50;;;;;;;;;;4937548;29;20293;-88
2021/10/27 13:43:16;;;;;;;7.67;4.43;;;;;;;;;;4937612;29;20206;-89
2021/10/27 13:45:57;;;;;;;5.63;3.80;;;;;;;;;;4937512;29;20202;-88
2021/10/27 13:48:36;;;;;;;5.20;4.60;;;;;;;;;;4937866;29;20253;-89
2021/10/27 14:07:44;;;;;;;20.67;6.80;;;;;;;;;;4937500;29;20182;-89
2021/10/27 14:10:14;;;;;;;6.83;6.13;;;;;;;;;;4937207;29;20235;-89
2021/10/27 14:12:47;;;;;;;7.13;5.80;;;;;;;;;;4937390;29;20203;-89
2021/10/27 14:15:37;;;;;;;7.83;6.10;;;;;;;;;;4938973;29;20713;-89
2021/10/27 14:18:36;;;;;;;9.97;8.73;;;;;;;;;;4937154;29;20635;-90
2021/10/27 14:40:43;;;;;;;8.83;7.60;;;;;;;;;;4936496;29;20274;-90
2021/10/27 15:21:45;;;;;;;41.53;30.00;;;;;;;;;;4955035;29;20573;-90
2021/10/27 15:24:33;;;;;;;201.77;115.10;;;;;;;;;;4955211;29;20565;-89
2021/10/27 15:30:18;;;;;;;57.20;42.33;;;;;;;;;;4954811;28;20248;-88
2021/10/27 15:32:50;;;;;;;14.93;10.17;;;;;;;;;;4954758;29;20194;-90
2021/10/27 15:41:07;;;;;;;31.97;20.43;;;;;;;;;;4945434;29;20589;-89
2021/10/27 15:43:45;;;;;;;19.10;15.57;;;;;;;;;;4954695;29;20221;-89
2021/10/27 15:51:57;;;;;;;55.90;35.23;;;;;;;;;;4954756;29;20194;-89
2021/10/27 15:54:25;;;;;;;15.73;11.63;;;;;;;;;;4954500;29;20293;-88
2021/10/27 15:56:52;;;;;;;18.13;15.00;;;;;;;;;;4954731;29;20296;-89
2021/10/27 15:59:21;;;;;;;28.60;25.43;;;;;;;;;;4955467;29;20582;-89
2021/10/27 16:01:48;;;;;;;21.37;19.07;;;;;;;;;;4954558;29;20671;-89
2021/10/27 16:04:16;;;;;;;36.20;24.43;;;;;;;;;;4954611;29;20264;-89
2021/10/27 16:06:49;;;;;;;30.30;25.97;;;;;;;;;;4954771;29;20574;-88
2021/10/27 16:09:17;;;;;;;17.10;14.47;;;;;;;;;;4956168;28;20245;-88
2021/10/27 16:11:45;;;;;;;20.03;15.63;;;;;;;;;;4958342;29;20201;-89
2021/10/27 16:14:13;;;;;;;23.87;19.03;;;;;;;;;;4958394;29;20639;-88
2021/10/27 16:16:42;;;;;;;20.73;16.20;;;;;;;;;;4958155;29;20297;-88
2021/10/27 16:19:10;;;;;;;10.20;8.13;;;;;;;;;;4958017;29;20206;-87
2021/10/27 16:21:37;;;;;;;15.63;13.07;;;;;;;;;;4957905;29;20206;-88
2021/10/27 16:24:05;;;;;;;16.23;13.03;;;;;;;;;;4957988;29;20221;-87
2021/10/27 16:26:32;;;;;;;12.27;11.03;;;;;;;;;;4957837;29;20297;-88
2021/10/27 16:28:59;;;;;;;14.87;11.20;;;;;;;;;;4957822;29;20208;-88
2021/10/27 16:31:27;;;;;;;9.27;8.10;;;;;;;;;;4957623;28;20238;-88
2021/10/27 16:33:55;;;;;;;13.90;10.77;;;;;;;;;;4957432;29;20746;-87
2021/10/27 16:36:23;;;;;;;37.63;33.23;;;;;;;;;;4957222;29;20230;-86
2021/10/27 16:38:51;;;;;;;67.10;46.33;;;;;;;;;;4957406;29;20201;-87
2021/10/27 16:41:18;;;;;;;57.37;43.67;;;;;;;;;;4957131;29;20202;-86
2021/10/27 16:43:46;;;;;;;53.90;40.83;;;;;;;;;;4957708;29;20228;-87
2021/10/27 16:46:14;;;;;;;40.47;30.67;;;;;;;;;;4957495;29;20202;-87
2021/10/27 16:48:41;;;;;;;27.00;20.80;;;;;;;;;;4957153;29;20206;-87
2021/10/27 16:51:10;;;;;;;22.67;17.37;;;;;;;;;;4957112;29;20265;-88
2021/10/27 16:53:37;;;;;;;31.97;25.43;;;;;;;;;;4957151;29;20293;-87
2021/10/27 16:56:05;;;;;;;18.40;14.33;;;;;;;;;;4956855;29;20229;-87
2021/10/27 16:58:33;;;;;;;17.33;13.97;;;;;;;;;;4957260;29;20194;-87
2021/10/27 17:01:01;;;;;;;10.60;9.50;;;;;;;;;;4956793;29;20212;-87
2021/10/27 17:03:29;;;;;;;12.53;9.40;;;;;;;;;;4956812;29;20667;-87
2021/10/27 17:05:57;;;;;;;11.53;9.80;;;;;;;;;;4957020;29;20194;-87
2021/10/27 17:08:26;;;;;;;13.90;8.83;;;;;;;;;;4957207;29;20230;-87
2021/10/27 17:10:54;;;;;;;8.40;7.00;;;;;;;;;;4956635;29;20209;-88
2021/10/27 17:13:23;;;;;;;13.50;10.17;;;;;;;;;;4956950;29;20253;-87
2021/10/27 17:15:52;;;;;;;9.80;8.10;;;;;;;;;;4956546;29;20226;-87
2021/10/27 17:18:19;;;;;;;8.50;7.33;;;;;;;;;;4956793;29;20206;-87
2021/10/27 17:20:47;;;;;;;11.13;8.13;;;;;;;;;;4955638;28;20241;-88
2021/10/27 17:23:18;;;;;;;10.03;8.87;;;;;;;;;;4956721;29;20202;-88
2021/10/27 17:25:47;;;;;;;11.70;10.33;;;;;;;;;;4956787;29;20186;-87
2021/10/27 17:28:15;;;;;;;13.70;12.30;;;;;;;;;;4956829;29;20661;-88
2021/10/27 17:30:42;;;;;;;18.50;16.60;;;;;;;;;;4956212;29;20238;-88
2021/10/27 17:33:09;;;;;;;11.23;8.87;;;;;;;;;;4956408;29;20221;-88
2021/10/27 17:35:37;;;;;;;9.90;8.90;;;;;;;;;;4956444;29;20221;-88
2021/10/27 17:38:04;;;;;;;10.10;8.23;;;;;;;;;;4956442;29;20683;-87
2021/10/27 17:40:34;;;;;;;7.60;6.80;;;;;;;;;;4956191;29;20222;-87
2021/10/27 17:43:04;;;;;;;31.50;26.40;;;;;;;;;;4956516;29;20547;-87
2021/10/27 17:45:37;;;;;;;31.97;27.00;;;;;;;;;;4956187;29;20694;-87
2021/10/27 17:48:08;;;;;;;30.50;24.17;;;;;;;;;;4956325;29;20670;-88
2021/10/27 17:50:50;;;;;;;51.50;36.33;;;;;;;;;;4956023;29;20252;-86
2021/10/27 17:59:04;;;;;;;25.40;20.83;;;;;;;;;;4956261;29;20210;-88
2021/10/27 18:01:33;;;;;;;19.40;15.13;;;;;;;;;;4955749;29;20229;-87
2021/10/27 18:04:02;;;;;;;16.20;13.63;;;;;;;;;;4955993;29;20204;-87
2021/10/27 18:06:29;;;;;;;15.10;13.30;;;;;;;;;;4955918;29;20202;-88
2021/10/27 18:08:57;;;;;;;16.70;13.30;;;;;;;;;;4955937;29;20206;-88
2021/10/27 18:11:26;;;;;;;14.23;11.73;;;;;;;;;;4955716;29;20630;-87
2021/10/27 18:13:56;;;;;;;12.77;11.43;;;;;;;;;;4955489;29;20204;-87
2021/10/27 18:16:32;;;;;;;11.30;8.43;;;;;;;;;;4955535;29;20793;-88
2021/10/27 18:19:15;;;;;;;8.90;5.97;;;;;;;;;;4955794;29;20189;-88
2021/10/27 18:21:46;;;;;;;9.70;7.80;;;;;;;;;;4955857;29;20281;-87
2021/10/27 18:27:30;;;;;;;12.87;10.07;;;;;;;;;;4896672;29;20206;-88
2021/10/27 18:38:34;;;;;;;9.57;8.07;;;;;;;;;;4945998;29;20684;-88
2021/10/27 18:41:08;;;;;;;9.60;7.07;;;;;;;;;;4955155;29;20201;-87
2021/10/27 18:43:36;;;;;;;11.80;8.67;;;;;;;;;;4955468;29;20190;-87
2021/10/27 18:46:05;;;;;;;7.63;6.73;;;;;;;;;;4955114;29;20705;-88
2021/10/27 18:48:36;;;;;;;7.97;7.17;;;;;;;;;;4955178;29;20202;-87
2021/10/27 18:51:05;;;;;;;9.10;7.63;;;;;;;;;;4955064;29;20198;-87
2021/10/27 18:53:58;;;;;;;9.80;7.10;;;;;;;;;;4954767;29;20616;-87
2021/10/27 18:56:31;;;;;;;12.07;10.77;;;;;;;;;;4955014;29;20642;-88
2021/10/27 18:59:12;;;;;;;12.47;11.17;;;;;;;;;;4955019;29;20186;-87